< < Back
Terminal Aerodrome Forecast


Current Version              Previous Versions:   1  2  3  4  5  6  7  8  9  

Terminal Aerodrome Forecast

372
FTUS42 KMLB 241836 AAA
TAFMCO
TAF AMD
KMCO 241836Z 2419/2518 06012KT P6SM VCTS SCT040CB BKN100
     FM242200 10013KT P6SM SCT050 BKN250
     FM250200 08006KT P6SM FEW060 SCT250
     FM251400 07009KT P6SM FEW025=



Latest METAR

838
SAUS70 KWBC 242100 RRJ
MTRMCO
METAR KMCO 242053Z 09015G19KT 10SM SCT055 BKN090 BKN250 27/16 A3012 RMK
AO2 SLP196 T02670156 50003


USA.gov is the U.S. government's official web portal to all federal, state and local government web resources and services.